Weather at Lutong Airport

Public forecast

Using degrees Celsius for public forecast. Weather courtesy of forecast.io.

Closest aviation weather report (METAR) to Lutong Airport

Closest report is Miri Airport, 7.7 nm (14.3 km) S. Retrieved 2022/01/19 22:00 UTC (34 minutes ago):

WBGR 192200Z 07006KT 020V100 9999 SCT014 FEW015CB 24/24 Q1007 RETS

Closest aviation forecast (TAF) to Lutong Airport

Closest forecast is Miri Airport, 7.7 nm (14.3 km) S. Retrieved 2022/01/19 18:00 UTC (5 hours ago):

TAF WBGR 191700Z 1918/2018 03006KT 5000 RA SCT014